createdAt,value
2022-12-14T00:03:33.000Z,12.37
2022-12-14T00:08:41.295Z,12.77
2022-12-14T00:13:44.063Z,13.10
2022-12-14T00:18:52.838Z,12.67
2022-12-14T00:23:57.079Z,12.67
2022-12-14T00:29:01.318Z,13.60
2022-12-14T00:34:03.078Z,13.27
2022-12-14T00:39:05.096Z,13.43
2022-12-14T00:44:06.863Z,13.07
2022-12-14T00:49:09.108Z,12.20
2022-12-14T00:54:10.891Z,12.10
2022-12-14T00:59:12.600Z,12.47
2022-12-14T01:04:24.540Z,11.43
2022-12-14T01:09:26.657Z,12.00
2022-12-14T01:14:28.371Z,11.97
2022-12-14T01:19:30.233Z,12.53
2022-12-14T01:24:31.915Z,13.27
2022-12-14T01:29:33.870Z,12.43
2022-12-14T01:34:35.568Z,11.83
2022-12-14T01:39:37.211Z,11.57
2022-12-14T01:44:38.893Z,11.67
2022-12-14T01:49:55.802Z,11.80
2022-12-14T01:55:19.444Z,12.83
2022-12-14T02:00:21.229Z,11.43
2022-12-14T02:05:24.937Z,11.37
2022-12-14T02:10:29.056Z,11.13
2022-12-14T02:15:31.997Z,11.10
2022-12-14T02:21:01.459Z,10.50
2022-12-14T02:26:18.260Z,10.73
2022-12-14T02:31:37.427Z,11.33
2022-12-14T02:36:51.734Z,10.97
2022-12-14T02:42:13.780Z,10.40
2022-12-14T02:47:48.749Z,10.87
2022-12-14T02:53:18.407Z,10.73
2022-12-14T02:58:29.017Z,10.63
2022-12-14T03:03:31.031Z,10.20
2022-12-14T03:08:36.055Z,9.50
2022-12-14T03:13:53.888Z,9.97
2022-12-14T03:19:01.283Z,9.80
2022-12-14T03:24:09.982Z,10.60
2022-12-14T03:29:18.752Z,10.43
2022-12-14T03:34:28.075Z,9.90
2022-12-14T03:39:35.651Z,10.30
2022-12-14T03:44:49.442Z,10.37
2022-12-14T03:50:03.135Z,10.03
2022-12-14T03:55:17.000Z,10.40
2022-12-14T04:00:23.667Z,10.60
2022-12-14T04:05:35.085Z,9.13
2022-12-14T04:11:04.788Z,9.37
2022-12-14T04:16:36.210Z,10.03
2022-12-14T04:21:55.039Z,9.50
2022-12-14T04:27:11.081Z,9.13
2022-12-14T04:32:30.341Z,9.40
2022-12-14T04:37:35.992Z,9.43
2022-12-14T04:42:48.469Z,8.67
2022-12-14T04:48:03.657Z,8.10
2022-12-14T04:53:16.986Z,8.87
2022-12-14T04:58:28.916Z,9.63
2022-12-14T05:03:34.503Z,9.67
2022-12-14T05:09:03.958Z,8.57
2022-12-14T05:14:11.899Z,8.67
2022-12-14T05:19:15.085Z,9.90
2022-12-14T05:24:17.478Z,9.27
2022-12-14T05:29:19.389Z,10.07
2022-12-14T05:34:21.470Z,10.70
2022-12-14T05:39:23.152Z,10.23
2022-12-14T05:44:24.881Z,9.20
2022-12-14T05:49:26.542Z,10.03
2022-12-14T05:54:28.208Z,9.27
2022-12-14T05:59:30.899Z,9.37
2022-12-14T06:04:32.758Z,9.67
2022-12-14T06:09:34.497Z,9.63
2022-12-14T06:14:36.163Z,10.40
2022-12-14T06:19:37.846Z,8.77
2022-12-14T06:24:39.592Z,8.50
2022-12-14T06:29:41.329Z,9.90
2022-12-14T06:34:45.395Z,10.10
2022-12-14T06:39:52.622Z,9.97
2022-12-14T06:44:55.920Z,8.63
2022-12-14T06:49:57.704Z,9.10
2022-12-14T06:54:59.389Z,8.73
2022-12-14T07:00:01.184Z,10.33
2022-12-14T07:05:03.013Z,10.53
2022-12-14T07:10:05.908Z,9.40
2022-12-14T07:15:08.237Z,9.07
2022-12-14T07:20:10.572Z,9.97
2022-12-14T07:25:12.322Z,8.80
2022-12-14T07:30:14.505Z,9.37
2022-12-14T07:35:16.950Z,9.87
2022-12-14T07:40:18.717Z,9.80
2022-12-14T07:45:20.380Z,10.50
2022-12-14T07:50:22.069Z,9.90
2022-12-14T07:55:23.810Z,10.10
2022-12-14T08:00:25.546Z,10.83
2022-12-14T08:05:27.283Z,10.27
2022-12-14T08:10:28.961Z,10.77
2022-12-14T08:15:30.606Z,11.63
2022-12-14T08:20:32.302Z,12.60
2022-12-14T08:25:33.990Z,11.00
2022-12-14T08:30:40.388Z,11.23
2022-12-14T08:35:42.151Z,10.97
2022-12-14T08:40:43.853Z,11.53
2022-12-14T08:45:45.546Z,12.37
2022-12-14T08:50:49.885Z,11.77
2022-12-14T08:55:51.833Z,11.77
2022-12-14T09:01:32.127Z,11.83
2022-12-14T09:06:39.645Z,11.00
2022-12-14T09:11:45.574Z,12.87
2022-12-14T09:16:47.500Z,11.85
2022-12-14T09:21:49.243Z,12.98
2022-12-14T09:26:51.757Z,11.38
2022-12-14T09:31:54.898Z,12.48
2022-12-14T09:36:56.866Z,12.95
2022-12-14T09:42:19.280Z,13.20
2022-12-14T09:47:30.071Z,11.98
2022-12-14T09:52:34.508Z,12.30
2022-12-14T09:57:41.455Z,12.75
2022-12-14T10:03:06.865Z,12.90
2022-12-14T10:08:40.832Z,12.63
2022-12-14T10:14:13.213Z,12.98
2022-12-14T10:19:42.080Z,13.10
2022-12-14T10:24:48.830Z,13.40
2022-12-14T10:30:00.157Z,13.65
2022-12-14T10:35:16.639Z,13.93
2022-12-14T10:40:33.740Z,13.68
2022-12-14T10:45:52.227Z,13.65
2022-12-14T10:51:00.019Z,14.25
2022-12-14T10:56:08.926Z,14.15
2022-12-14T11:01:14.925Z,13.48
2022-12-14T11:06:19.853Z,14.80
2022-12-14T11:11:23.951Z,15.25
2022-12-14T11:16:36.696Z,15.70
2022-12-14T11:21:39.334Z,13.40
2022-12-14T11:26:42.913Z,13.73
2022-12-14T11:31:46.851Z,13.68
2022-12-14T11:36:49.793Z,14.63
2022-12-14T11:42:01.363Z,14.98
2022-12-14T11:47:08.405Z,15.52
2022-12-14T11:52:25.653Z,15.48
2022-12-14T11:57:52.920Z,14.45
2022-12-14T12:02:57.869Z,13.80
2022-12-14T12:08:02.277Z,13.95
2022-12-14T12:13:07.160Z,13.50
2022-12-14T12:18:18.215Z,14.38
2022-12-14T12:23:27.567Z,14.27
2022-12-14T12:28:34.490Z,13.75
2022-12-14T12:34:10.086Z,13.80
2022-12-14T12:39:20.164Z,13.70
2022-12-14T12:44:38.488Z,14.40
2022-12-14T12:49:40.226Z,14.90
2022-12-14T12:54:52.284Z,14.25
2022-12-14T12:59:56.917Z,15.07
2022-12-14T13:05:16.555Z,14.38
2022-12-14T13:10:32.413Z,14.23
2022-12-14T13:15:47.708Z,14.85
2022-12-14T13:20:49.746Z,15.40
2022-12-14T13:26:57.323Z,13.70
2022-12-14T13:32:22.485Z,16.05
2022-12-14T13:37:39.284Z,15.52
2022-12-14T13:43:13.246Z,14.98
2022-12-14T13:48:27.232Z,15.15
2022-12-14T13:53:34.447Z,14.90
2022-12-14T13:58:45.331Z,14.38
2022-12-14T14:03:52.325Z,14.45
2022-12-14T14:08:54.505Z,15.23
2022-12-14T14:14:34.127Z,16.92
2022-12-14T14:19:40.216Z,14.93
2022-12-14T14:24:52.142Z,14.98
2022-12-14T14:29:56.849Z,14.70
2022-12-14T14:35:00.830Z,15.35
2022-12-14T14:40:18.679Z,16.30
2022-12-14T14:45:31.485Z,15.75
2022-12-14T14:50:37.035Z,14.75
2022-12-14T14:55:54.733Z,15.70
2022-12-14T15:01:02.621Z,15.02
2022-12-14T15:06:04.742Z,14.32
2022-12-14T15:11:17.902Z,15.70
2022-12-14T15:16:40.717Z,15.20
2022-12-14T15:21:42.573Z,16.08
2022-12-14T15:26:44.352Z,15.38
2022-12-14T15:31:48.337Z,15.90
2022-12-14T15:36:51.770Z,15.57
2022-12-14T15:42:02.814Z,18.17
2022-12-14T15:47:04.595Z,17.55
2022-12-14T15:52:08.027Z,15.75
2022-12-14T15:57:19.072Z,15.55
2022-12-14T16:02:31.382Z,17.75
2022-12-14T16:07:44.974Z,16.80
2022-12-14T16:12:49.565Z,16.23
2022-12-14T16:17:59.247Z,15.43
2022-12-14T16:23:22.266Z,17.45
2022-12-14T16:28:31.332Z,17.25
2022-12-14T16:33:35.887Z,17.25
2022-12-14T16:38:54.813Z,16.75
2022-12-14T16:44:00.545Z,16.77
2022-12-14T16:49:30.314Z,17.00
2022-12-14T16:54:33.710Z,18.52
2022-12-14T16:59:38.755Z,18.08
2022-12-14T17:04:42.599Z,17.95
2022-12-14T17:09:44.282Z,16.42
2022-12-14T17:14:49.685Z,18.67
2022-12-14T17:19:52.203Z,18.38
2022-12-14T17:24:54.263Z,16.50
2022-12-14T17:29:57.066Z,19.15
2022-12-14T17:34:59.469Z,17.67
2022-12-14T17:40:01.222Z,17.05
2022-12-14T17:45:03.306Z,17.50
2022-12-14T17:50:05.538Z,17.33
2022-12-14T17:55:07.502Z,17.48
2022-12-14T18:00:35.290Z,17.00
2022-12-14T18:05:38.510Z,17.38
2022-12-14T18:10:42.808Z,18.20
2022-12-14T18:15:50.907Z,18.23
2022-12-14T18:20:55.951Z,19.10
2022-12-14T18:25:59.640Z,19.55
2022-12-14T18:31:07.309Z,17.92
2022-12-14T18:36:11.751Z,17.60
2022-12-14T18:41:16.703Z,17.50
2022-12-14T18:46:18.702Z,17.92
2022-12-14T18:51:23.823Z,18.25
2022-12-14T18:56:28.006Z,17.92
2022-12-14T19:01:29.854Z,18.17
2022-12-14T19:06:46.944Z,19.48
2022-12-14T19:11:48.705Z,18.87
2022-12-14T19:16:50.377Z,17.88
2022-12-14T19:21:54.787Z,20.00
2022-12-14T19:26:56.605Z,18.83
2022-12-14T19:32:04.867Z,20.27
2022-12-14T19:37:07.136Z,20.10
2022-12-14T19:42:08.860Z,20.37
2022-12-14T19:47:10.663Z,18.00
2022-12-14T19:52:12.598Z,19.60
2022-12-14T19:57:14.449Z,20.43
2022-12-14T20:02:16.827Z,20.67
2022-12-14T20:07:18.740Z,20.70
2022-12-14T20:12:20.496Z,20.00
2022-12-14T20:17:22.184Z,21.80
2022-12-14T20:22:23.902Z,20.37
2022-12-14T20:27:25.698Z,20.47
2022-12-14T20:32:27.553Z,20.13
2022-12-14T20:37:30.971Z,21.30
2022-12-14T20:42:32.758Z,22.10
2022-12-14T20:47:34.815Z,21.33
2022-12-14T20:52:36.580Z,21.10
2022-12-14T20:57:38.343Z,21.50
2022-12-14T21:02:40.237Z,22.27
2022-12-14T21:07:44.803Z,22.23
2022-12-14T21:12:48.892Z,21.43
2022-12-14T21:17:50.789Z,20.40
2022-12-14T21:22:52.463Z,20.67
2022-12-14T21:27:54.167Z,22.33
2022-12-14T21:32:55.896Z,21.57
2022-12-14T21:37:57.624Z,21.60
2022-12-14T21:42:59.384Z,22.23
2022-12-14T21:48:01.077Z,20.37
2022-12-14T21:53:02.841Z,20.93
2022-12-14T21:58:19.507Z,22.97
2022-12-14T22:03:21.323Z,21.83
2022-12-14T22:08:23.132Z,23.63
2022-12-14T22:13:24.999Z,21.90
2022-12-14T22:18:26.731Z,22.17
2022-12-14T22:23:31.248Z,22.83
2022-12-14T22:28:34.157Z,23.17
2022-12-14T22:33:36.164Z,21.57
2022-12-14T22:38:38.102Z,22.27
2022-12-14T22:43:40.577Z,21.80
2022-12-14T22:48:42.806Z,23.47
2022-12-14T22:53:44.547Z,21.80
2022-12-14T22:58:57.503Z,22.43
2022-12-14T23:03:59.453Z,22.63
2022-12-14T23:09:19.894Z,22.10
2022-12-14T23:14:40.382Z,21.80
2022-12-14T23:20:04.625Z,22.03
2022-12-14T23:25:25.788Z,25.93
2022-12-14T23:30:46.432Z,23.40
2022-12-14T23:36:06.654Z,21.70
2022-12-14T23:41:27.040Z,20.80
2022-12-14T23:46:47.899Z,22.27
2022-12-14T23:52:08.243Z,23.00
2022-12-14T23:57:28.870Z,24.33
